Terminal Aerodrome Forecast
Issued by NWS

Home | Current Version | Previous Version | Text Only | Print | Product List | Glossary On
Versions: 1 2 3 4 5 6 7 8 9 10 11 12 13 14 15 16 17 18 19
000
FTUS45 KBOU 261733
TAFBJC
TAF
KBJC 261733Z 2618/2718 08005KT P6SM -TSRA BKN040CB OVC090
      TEMPO 2619/2621 VRB20G30KT 3SM +TSRAGS BKN030CB
     FM262200 36011KT P6SM -SHRA SCT040 OVC070
      TEMPO 2622/2701 TSRA OVC030CB
     FM270200 33011KT P6SM -RA BKN008 OVC020
     FM271200 32009KT P6SM -SHRA BKN008 OVC016
     FM271600 03010KT P6SM VCSH SCT010 BKN020=

USA.gov is the U.S. government's official web portal to all federal, state and local government web resources and services.